Time;durP1;ratioP1;P1;durP2;ratioP2;P2;SDS_P1;SDS_P2;PMS_P1;PMS_P2;Temp;Humidity;BMP_temperature;BMP_pressure;BME280_temperature;BME280_humidity;BME280_pressure;Samples;Min_cycle;Max_cycle;Signal;HPM_P1;HPM_P2
2022/03/14 00:01:44;;;;;;;15.25;10.40;;;9.60;67.70;;;;;;4903186;29;20026;-82
2022/03/14 00:04:29;;;;;;;;;;;9.60;66.70;;;;;;4890882;29;20055;-82
2022/03/14 00:07:13;;;;;;;16.23;9.48;;;9.60;68.50;;;;;;4905285;29;19957;-82
2022/03/14 00:09:57;;;;;;;14.90;9.48;;;9.60;67.70;;;;;;4918789;29;20097;-81
2022/03/14 00:12:48;;;;;;;;;;;9.60;68.80;;;;;;4901637;29;20445;-82
2022/03/14 00:15:33;;;;;;;14.50;9.60;;;9.60;71.70;;;;;;4901202;29;19922;-83
2022/03/14 00:18:19;;;;;;;13.68;9.88;;;9.60;69.30;;;;;;4900647;29;20131;-83
2022/03/14 00:21:05;;;;;;;15.48;9.57;;;9.70;70.40;;;;;;4901514;29;20055;-82
2022/03/14 00:23:50;;;;;;;14.73;9.65;;;9.70;70.90;;;;;;4888722;29;20483;-82
2022/03/14 00:26:35;;;;;;;13.02;8.85;;;9.70;71.20;;;;;;4891684;29;20072;-82
2022/03/14 00:29:19;;;;;;;14.98;9.90;;;9.70;71.80;;;;;;4904288;29;20468;-82
2022/03/14 00:32:04;;;;;;;12.30;8.40;;;9.70;73.00;;;;;;4891299;29;20111;-82
2022/03/14 00:34:48;;;;;;;15.38;8.90;;;9.60;73.70;;;;;;4918663;29;20188;-82
2022/03/14 00:37:34;;;;;;;13.38;8.85;;;9.60;74.50;;;;;;4904231;29;20051;-82
2022/03/14 00:40:18;;;;;;;13.73;8.90;;;9.60;75.00;;;;;;4918054;29;20039;-82
2022/03/14 00:43:03;;;;;;;13.80;9.27;;;9.60;75.40;;;;;;4904281;29;20047;-83
2022/03/14 00:45:47;;;;;;;11.85;8.63;;;9.60;76.10;;;;;;4890825;29;20055;-82
2022/03/14 00:48:32;;;;;;;13.85;9.00;;;9.60;77.10;;;;;;4903527;29;20047;-83
2022/03/14 00:51:16;;;;;;;11.77;8.77;;;9.70;77.90;;;;;;4903700;29;20404;-83
2022/03/14 00:54:05;;;;;;;12.27;7.80;;;9.70;79.00;;;;;;4918423;29;20051;-82
2022/03/14 00:56:49;;;;;;;12.68;7.70;;;9.70;80.20;;;;;;4918281;29;20067;-82
2022/03/14 00:59:34;;;;;;;;;;;9.60;81.50;;;;;;4884735;29;20085;-82
2022/03/14 01:02:18;;;;;;;11.20;7.53;;;9.70;84.60;;;;;;4898861;29;20335;-82
2022/03/14 01:05:02;;;;;;;;;;;9.70;82.00;;;;;;4872295;29;20520;-82
2022/03/14 01:07:46;;;;;;;10.77;7.63;;;9.80;84.80;;;;;;4899174;29;20002;-82
2022/03/14 01:10:30;;;;;;;9.85;7.40;;;9.90;82.70;;;;;;4884467;29;20044;-82
2022/03/14 01:13:15;;;;;;;13.25;7.88;;;9.80;84.00;;;;;;4884666;29;20122;-85
2022/03/14 01:15:59;;;;;;;12.40;7.25;;;9.80;85.60;;;;;;4884908;29;20055;-82
2022/03/14 01:18:43;;;;;;;10.25;7.00;;;9.90;86.30;;;;;;4884858;29;20451;-83
2022/03/14 01:21:30;;;;;;;10.45;7.20;;;9.90;86.90;;;;;;4871296;29;20100;-83
2022/03/14 01:24:14;;;;;;;11.73;7.65;;;9.90;87.80;;;;;;4871776;29;20055;-84
2022/03/14 01:26:58;;;;;;;;;;;9.90;88.50;;;;;;4899501;29;20120;-82
2022/03/14 01:29:42;;;;;;;11.27;6.55;;;9.80;90.30;;;;;;4884619;29;20406;-82
2022/03/14 01:32:26;;;;;;;;;;;9.80;88.70;;;;;;4898659;29;20104;-82
2022/03/14 01:35:11;;;;;;;9.15;6.78;;;9.80;90.30;;;;;;4884287;29;19919;-82
2022/03/14 01:37:57;;;;;;;10.05;6.72;;;9.80;89.20;;;;;;4871432;29;20516;-82
2022/03/14 01:40:41;;;;;;;9.93;6.53;;;9.80;90.00;;;;;;4898063;29;20100;-82
2022/03/14 01:43:26;;;;;;;9.07;6.72;;;9.80;90.50;;;;;;4883874;29;20127;-83
2022/03/14 01:46:12;;;;;;;12.68;7.38;;;9.80;90.80;;;;;;4897443;29;20412;-83
2022/03/14 01:48:56;;;;;;;9.82;6.75;;;9.80;91.10;;;;;;4884128;29;20079;-83
2022/03/14 01:51:41;;;;;;;9.50;7.15;;;9.80;91.30;;;;;;4897849;29;20096;-83
2022/03/14 01:54:26;;;;;;;9.13;6.60;;;9.80;91.50;;;;;;4883502;29;20083;-83
2022/03/14 01:57:13;;;;;;;10.98;6.95;;;9.80;91.70;;;;;;4884109;29;20040;-83
2022/03/14 01:59:58;;;;;;;13.90;7.65;;;9.70;91.90;;;;;;4883925;29;20051;-83
2022/03/14 02:02:43;;;;;;;10.25;6.85;;;9.70;92.20;;;;;;4883506;29;20048;-83
2022/03/14 02:05:28;;;;;;;9.73;6.40;;;9.80;92.50;;;;;;4870227;29;20105;-83
2022/03/14 02:08:13;;;;;;;9.07;6.70;;;9.70;92.80;;;;;;4858015;29;20511;-82
2022/03/14 02:10:58;;;;;;;8.68;6.53;;;9.70;93.00;;;;;;4883833;29;20096;-82
2022/03/14 02:13:42;;;;;;;9.25;6.57;;;9.70;93.40;;;;;;4897496;29;20047;-82
2022/03/14 02:16:26;;;;;;;8.05;5.93;;;9.70;93.80;;;;;;4883109;29;20047;-83
2022/03/14 02:19:10;;;;;;;9.27;5.88;;;9.70;94.00;;;;;;4897819;29;20163;-82
2022/03/14 02:21:54;;;;;;;9.45;6.68;;;9.60;94.30;;;;;;4897854;29;20095;-83
2022/03/14 02:24:38;;;;;;;;;;;9.60;94.50;;;;;;4897721;29;20579;-82
2022/03/14 02:27:23;;;;;;;8.57;6.38;;;9.60;94.80;;;;;;4897817;29;19922;-82
2022/03/14 02:30:07;;;;;;;8.32;5.30;;;9.60;94.60;;;;;;4892164;29;20048;-83
2022/03/14 02:32:52;;;;;;;8.55;6.30;;;9.60;95.00;;;;;;4883232;29;20059;-83
2022/03/14 02:35:39;;;;;;;7.63;5.40;;;9.60;95.30;;;;;;4882801;29;20063;-82
2022/03/14 02:38:23;;;;;;;8.60;6.45;;;9.50;95.50;;;;;;4870509;29;20048;-82
2022/03/14 02:41:07;;;;;;;8.85;6.53;;;9.60;95.90;;;;;;4870311;29;20075;-82
2022/03/14 02:43:51;;;;;;;;;;;9.50;96.30;;;;;;4883156;29;20127;-82
2022/03/14 02:46:37;;;;;;;9.30;5.70;;;9.50;96.70;;;;;;4882557;29;20407;-82
2022/03/14 02:49:21;;;;;;;10.52;6.22;;;9.50;96.50;;;;;;4882892;29;20071;-82
2022/03/14 02:52:06;;;;;;;9.23;6.03;;;9.50;96.80;;;;;;4870132;29;20048;-82
2022/03/14 02:54:50;;;;;;;7.88;5.63;;;9.50;97.20;;;;;;4882459;29;20087;-83
2022/03/14 02:57:34;;;;;;;;;;;9.50;97.50;;;;;;4896659;29;20052;-82
2022/03/14 03:00:18;;;;;;;8.85;6.03;;;9.50;97.90;;;;;;4879132;29;19961;-82
2022/03/14 03:03:06;;;;;;;7.50;5.53;;;9.50;97.60;;;;;;4883114;29;20445;-83
2022/03/14 03:05:50;;;;;;;7.38;5.65;;;9.40;98.00;;;;;;4882276;29;20667;-83
2022/03/14 03:08:34;;;;;;;;;;;9.50;98.40;;;;;;4869742;29;20096;-83
2022/03/14 03:11:20;;;;;;;8.35;5.40;;;9.50;98.90;;;;;;4897167;29;19918;-82
2022/03/14 03:14:04;;;;;;;6.32;4.93;;;9.40;98.50;;;;;;4882836;29;20484;-82
2022/03/14 03:16:49;;;;;;;;;;;9.40;98.90;;;;;;4882657;29;20079;-83
2022/03/14 03:19:33;;;;;;;7.28;5.22;;;9.40;99.30;;;;;;4896873;29;20308;-86
2022/03/14 03:22:17;;;;;;;7.25;4.97;;;9.40;98.90;;;;;;4882750;29;20072;-82
2022/03/14 03:25:02;;;;;;;7.00;4.95;;;9.40;99.30;;;;;;4882741;29;20501;-83
2022/03/14 03:27:46;;;;;;;7.18;5.20;;;9.40;99.70;;;;;;4882262;29;20079;-82
2022/03/14 03:30:31;;;;;;;7.90;5.20;;;9.50;99.90;;;;;;4869684;29;20088;-82
2022/03/14 03:33:15;;;;;;;;;;;9.40;99.90;;;;;;4869966;29;20425;-82
2022/03/14 03:35:59;;;;;;;6.15;4.63;;;9.40;99.90;;;;;;4896348;29;19959;-82
2022/03/14 03:38:43;;;;;;;6.53;4.18;;;9.40;99.90;;;;;;4881981;29;20489;-82
2022/03/14 03:41:28;;;;;;;5.75;4.00;;;9.50;99.90;;;;;;4869397;29;20044;-82
2022/03/14 03:44:12;;;;;;;5.68;3.88;;;9.50;99.90;;;;;;4869354;29;20056;-82
2022/03/14 03:46:56;;;;;;;;;;;9.50;99.90;;;;;;4882427;29;20682;-82
2022/03/14 03:49:41;;;;;;;5.15;3.80;;;9.50;99.90;;;;;;4896310;29;19919;-82
2022/03/14 03:52:26;;;;;;;5.82;4.20;;;9.50;99.90;;;;;;4869637;29;20053;-82
2022/03/14 03:55:10;;;;;;;6.95;4.45;;;9.50;99.90;;;;;;4882573;29;20091;-82
2022/03/14 03:57:54;;;;;;;7.05;3.90;;;9.50;99.90;;;;;;4885012;29;20581;-82
2022/03/14 04:00:39;;;;;;;5.25;3.80;;;9.60;99.90;;;;;;4891326;29;20088;-85
2022/03/14 04:03:24;;;;;;;7.53;3.88;;;9.50;99.90;;;;;;4891807;29;20039;-82
2022/03/14 04:06:08;;;;;;;5.28;3.83;;;9.50;99.90;;;;;;4904788;29;20055;-82
2022/03/14 04:08:52;;;;;;;5.18;3.72;;;9.50;99.90;;;;;;4890997;29;20128;-83
2022/03/14 04:11:37;;;;;;;5.63;4.15;;;9.60;99.90;;;;;;4919081;29;20116;-82
2022/03/14 04:14:21;;;;;;;5.22;3.95;;;9.60;99.90;;;;;;4904774;29;20512;-82
2022/03/14 04:17:07;;;;;;;4.53;3.60;;;9.50;99.90;;;;;;4918598;29;20052;-82
2022/03/14 04:19:52;;;;;;;5.00;3.55;;;9.50;99.90;;;;;;4890883;29;20456;-83
2022/03/14 04:22:40;;;;;;;6.22;4.32;;;9.50;99.90;;;;;;4904606;29;20043;-82
2022/03/14 04:25:24;;;;;;;6.03;3.42;;;9.50;99.90;;;;;;4904615;29;20453;-82
2022/03/14 04:28:09;;;;;;;6.05;3.75;;;9.50;99.90;;;;;;4904349;29;20092;-82
2022/03/14 04:30:53;;;;;;;4.22;3.25;;;9.50;99.90;;;;;;4903781;29;20456;-83
2022/03/14 04:33:38;;;;;;;4.63;3.50;;;9.50;99.90;;;;;;4891280;29;20060;-82
2022/03/14 04:36:22;;;;;;;5.57;3.97;;;9.50;99.90;;;;;;4918766;29;20660;-82
2022/03/14 04:39:08;;;;;;;4.38;3.53;;;9.50;99.90;;;;;;4918050;29;20099;-82
2022/03/14 04:41:54;;;;;;;4.40;3.38;;;9.50;99.90;;;;;;4917982;29;20428;-83
2022/03/14 04:44:39;;;;;;;5.18;3.50;;;9.50;99.90;;;;;;4903989;29;20067;-82
2022/03/14 04:47:25;;;;;;;4.85;3.40;;;9.50;99.90;;;;;;4890946;29;20130;-82
2022/03/14 04:50:10;;;;;;;4.35;3.08;;;9.50;99.90;;;;;;4890561;29;20441;-82
2022/03/14 04:52:55;;;;;;;4.85;3.30;;;9.50;99.90;;;;;;4917806;29;20039;-83
2022/03/14 04:55:41;;;;;;;5.03;3.58;;;9.50;99.90;;;;;;4903869;29;20091;-82
2022/03/14 04:58:25;;;;;;;4.68;3.10;;;9.40;99.90;;;;;;4903783;29;20135;-82
2022/03/14 05:01:09;;;;;;;;;;;9.50;99.90;;;;;;4903723;29;20078;-82
2022/03/14 05:03:53;;;;;;;5.10;3.60;;;9.80;99.90;;;;;;4903218;29;20374;-83
2022/03/14 05:06:37;;;;;;;5.00;3.38;;;9.40;99.90;;;;;;4903708;29;20078;-83
2022/03/14 05:09:21;;;;;;;;;;;9.50;99.90;;;;;;4918667;29;20405;-82
2022/03/14 05:12:06;;;;;;;5.47;3.20;;;9.50;99.90;;;;;;4902277;29;19922;-82
2022/03/14 05:14:51;;;;;;;4.47;3.10;;;9.50;99.90;;;;;;4917846;29;20067;-84
2022/03/14 05:17:36;;;;;;;4.70;3.22;;;9.50;99.90;;;;;;4903787;29;20083;-82
2022/03/14 05:20:20;;;;;;;3.70;3.00;;;9.50;99.90;;;;;;4903864;29;20110;-83
2022/03/14 05:23:05;;;;;;;4.25;3.13;;;9.50;99.90;;;;;;4917303;29;20095;-82
2022/03/14 05:25:50;;;;;;;3.97;3.08;;;9.50;99.90;;;;;;4890218;29;20117;-82
2022/03/14 05:28:34;;;;;;;4.45;3.33;;;9.50;99.90;;;;;;4903450;29;20092;-82
2022/03/14 05:31:21;;;;;;;5.15;3.20;;;9.50;99.90;;;;;;4903286;29;20063;-83
2022/03/14 05:34:05;;;;;;;5.10;3.50;;;9.50;99.90;;;;;;4917107;29;20043;-82
2022/03/14 05:36:49;;;;;;;5.13;3.28;;;9.50;99.90;;;;;;4903282;29;20405;-82
2022/03/14 05:39:34;;;;;;;4.45;3.22;;;9.40;99.90;;;;;;4903306;29;20110;-83
2022/03/14 05:42:17;;;;;;;;;;;9.40;99.90;;;;;;4902912;29;20062;-82
2022/03/14 05:45:03;;;;;;;5.30;3.22;;;9.40;99.90;;;;;;4917791;29;19930;-81
2022/03/14 05:47:47;;;;;;;5.50;3.47;;;9.40;99.90;;;;;;4903923;29;20078;-82
2022/03/14 05:50:32;;;;;;;4.60;3.70;;;9.40;99.90;;;;;;4918481;29;20051;-82
2022/03/14 05:53:16;;;;;;;4.90;3.42;;;9.40;99.90;;;;;;4903634;29;20046;-82
2022/03/14 05:56:00;;;;;;;5.63;3.80;;;9.40;99.90;;;;;;4917647;29;20404;-81
2022/03/14 05:58:45;;;;;;;5.80;3.70;;;9.40;99.90;;;;;;4890431;29;20124;-82
2022/03/14 06:01:29;;;;;;;4.40;3.45;;;9.50;99.90;;;;;;4901941;29;20054;-82
2022/03/14 06:04:13;;;;;;;7.28;4.07;;;9.40;99.90;;;;;;4902041;29;20083;-82
2022/03/14 06:06:58;;;;;;;5.43;3.88;;;9.50;99.90;;;;;;4902589;29;20087;-84
2022/03/14 06:09:42;;;;;;;;;;;9.40;99.90;;;;;;4903047;29;20440;-82
2022/03/14 06:12:29;;;;;;;4.68;3.60;;;9.40;99.90;;;;;;4902683;29;19972;-82
2022/03/14 06:15:14;;;;;;;5.03;3.67;;;9.40;99.90;;;;;;4916501;29;20102;-82
2022/03/14 06:17:58;;;;;;;7.10;3.78;;;9.40;99.90;;;;;;4902468;29;20088;-82
2022/03/14 06:20:42;;;;;;;;;;;9.40;99.90;;;;;;4900037;29;20495;-82
2022/03/14 06:23:26;;;;;;;5.25;4.07;;;9.30;99.90;;;;;;4901681;29;20058;-81
2022/03/14 06:26:10;;;;;;;6.20;4.07;;;10.20;99.90;;;;;;4887292;29;20496;-79
2022/03/14 06:28:55;;;;;;;6.35;4.28;;;9.30;99.90;;;;;;4916453;29;20050;-81
2022/03/14 06:31:39;;;;;;;;;;;9.30;99.90;;;;;;4887158;29;20043;-80
2022/03/14 06:34:24;;;;;;;7.22;4.30;;;9.30;99.90;;;;;;4903601;29;19979;-80
2022/03/14 06:37:08;;;;;;;5.03;4.07;;;10.30;99.90;;;;;;4888476;29;20059;-81
2022/03/14 06:39:52;;;;;;;5.90;4.18;;;9.30;99.90;;;;;;4900011;29;20050;-80
2022/03/14 06:42:38;;;;;;;7.90;4.60;;;9.30;99.90;;;;;;4915541;29;20038;-80
2022/03/14 06:45:23;;;;;;;7.03;4.20;;;9.40;99.90;;;;;;4897525;29;20745;-80
2022/03/14 06:48:07;;;;;;;5.60;4.35;;;9.20;99.90;;;;;;4900897;29;20091;-81
2022/03/14 06:50:51;;;;;;;;;;;9.40;99.90;;;;;;4888413;29;20064;-80
2022/03/14 06:53:35;;;;;;;4.88;3.88;;;9.20;99.90;;;;;;4915697;29;20439;-80
2022/03/14 06:56:20;;;;;;;6.97;4.22;;;9.20;99.90;;;;;;4900548;29;20039;-81
2022/03/14 06:59:05;;;;;;;5.05;3.72;;;9.10;99.90;;;;;;4915610;29;20560;-83
2022/03/14 07:01:49;;;;;;;;;;;9.10;99.90;;;;;;4915867;29;20040;-80
2022/03/14 07:04:34;;;;;;;6.13;4.07;;;9.20;99.90;;;;;;4915416;29;20062;-81
2022/03/14 07:07:19;;;;;;;7.43;4.05;;;9.10;99.90;;;;;;4900324;29;20039;-81
2022/03/14 07:10:03;;;;;;;7.13;5.60;;;9.10;99.90;;;;;;4901042;29;20047;-80
2022/03/14 07:12:49;;;;;;;7.47;4.43;;;9.10;99.90;;;;;;4915597;29;20130;-80
2022/03/14 07:15:34;;;;;;;6.35;4.40;;;9.10;99.90;;;;;;4914978;29;20449;-81
2022/03/14 07:18:18;;;;;;;;;;;9.10;99.90;;;;;;4901120;29;20571;-80
2022/03/14 07:21:02;;;;;;;5.63;4.35;;;9.10;99.90;;;;;;4886222;29;20282;-81
2022/03/14 07:23:46;;;;;;;;;;;9.20;99.90;;;;;;4886462;29;20072;-80
2022/03/14 07:26:30;;;;;;;7.10;4.80;;;9.00;99.90;;;;;;4914589;29;19977;-81
2022/03/14 07:29:15;;;;;;;7.07;4.75;;;9.00;99.90;;;;;;4914078;29;20071;-81
2022/03/14 07:31:59;;;;;;;9.07;4.88;;;9.10;99.90;;;;;;4900783;29;20349;-80
2022/03/14 07:34:43;;;;;;;;;;;9.10;99.90;;;;;;4903505;29;20540;-80
2022/03/14 07:37:27;;;;;;;7.38;5.10;;;9.00;99.90;;;;;;4904148;29;19921;-80
2022/03/14 07:40:13;;;;;;;7.07;5.25;;;9.00;99.90;;;;;;4904497;29;20168;-83
2022/03/14 07:42:59;;;;;;;7.38;5.05;;;9.00;99.90;;;;;;4918834;29;20060;-80
2022/03/14 07:45:43;;;;;;;6.78;5.32;;;9.10;99.90;;;;;;4904443;29;20119;-79
2022/03/14 07:48:27;;;;;;;8.25;5.78;;;9.10;99.90;;;;;;4904028;29;20043;-80
2022/03/14 07:51:11;;;;;;;9.27;5.85;;;9.10;99.90;;;;;;4918923;29;20099;-80
2022/03/14 07:53:55;;;;;;;7.88;6.10;;;9.10;99.90;;;;;;4918618;29;20043;-80
2022/03/14 07:56:40;;;;;;;6.78;5.05;;;9.10;99.90;;;;;;4904230;29;20501;-81
2022/03/14 07:59:24;;;;;;;8.77;5.70;;;9.10;99.90;;;;;;4877349;29;20115;-81
2022/03/14 08:02:08;;;;;;;7.22;5.80;;;9.20;99.90;;;;;;4918056;29;20051;-81
2022/03/14 08:04:52;;;;;;;7.88;6.28;;;9.20;99.90;;;;;;4903952;29;20059;-81
2022/03/14 08:07:37;;;;;;;8.15;5.40;;;9.20;99.90;;;;;;4917880;29;20071;-81
2022/03/14 08:10:22;;;;;;;10.43;6.28;;;9.20;99.90;;;;;;4917973;29;20071;-81
2022/03/14 08:13:06;;;;;;;7.55;5.63;;;9.30;99.90;;;;;;4904245;29;20042;-81
2022/03/14 08:15:51;;;;;;;9.02;6.35;;;10.00;99.90;;;;;;4904146;29;20043;-80
2022/03/14 08:18:37;;;;;;;8.55;5.65;;;9.40;99.90;;;;;;4890224;29;20043;-81
2022/03/14 08:21:22;;;;;;;7.93;5.95;;;9.40;99.90;;;;;;4917608;29;20490;-81
2022/03/14 08:24:06;;;;;;;;;;;9.40;99.90;;;;;;4904399;29;20397;-81
2022/03/14 08:26:50;;;;;;;8.40;5.20;;;9.40;99.90;;;;;;4918195;29;19958;-81
2022/03/14 08:29:34;;;;;;;7.75;5.85;;;9.40;99.90;;;;;;4917491;29;20043;-80
2022/03/14 08:32:22;;;;;;;8.30;6.28;;;9.50;99.90;;;;;;4918202;29;20047;-81
2022/03/14 08:35:08;;;;;;;8.15;6.00;;;9.40;99.90;;;;;;4891023;29;20076;-81
2022/03/14 08:37:54;;;;;;;9.23;7.28;;;9.50;99.90;;;;;;4903885;29;20416;-81
2022/03/14 08:40:38;;;;;;;9.95;6.97;;;9.70;99.90;;;;;;4902928;29;20040;-81
2022/03/14 08:43:22;;;;;;;9.93;7.90;;;9.40;99.90;;;;;;4915413;29;20056;-83
2022/03/14 08:46:07;;;;;;;9.65;7.50;;;9.50;99.90;;;;;;4900766;29;20412;-81
2022/03/14 08:48:51;;;;;;;;;;;9.50;99.90;;;;;;4904053;29;20047;-80
2022/03/14 08:51:37;;;;;;;10.18;7.53;;;9.40;99.90;;;;;;4901224;29;19924;-81
2022/03/14 08:54:21;;;;;;;9.52;7.43;;;9.40;99.90;;;;;;4915468;29;20091;-81
2022/03/14 08:57:05;;;;;;;;;;;9.40;99.90;;;;;;4918215;29;20449;-81
2022/03/14 08:59:50;;;;;;;10.30;7.97;;;9.40;99.90;;;;;;4917528;29;19930;-81
2022/03/14 09:02:35;;;;;;;11.02;8.07;;;9.40;99.90;;;;;;4916830;29;20066;-81
2022/03/14 09:05:20;;;;;;;9.48;7.85;;;9.40;99.90;;;;;;4917176;29;20047;-81
2022/03/14 09:08:04;;;;;;;15.07;7.88;;;9.40;99.90;;;;;;4889986;29;20496;-81
2022/03/14 09:10:49;;;;;;;12.27;8.30;;;9.40;99.90;;;;;;4916995;29;20548;-80
2022/03/14 09:13:34;;;;;;;10.32;7.82;;;9.50;99.90;;;;;;4889617;29;20039;-81
2022/03/14 09:16:20;;;;;;;10.27;7.95;;;9.50;99.90;;;;;;4903247;29;20052;-81
2022/03/14 09:19:04;;;;;;;11.85;8.40;;;9.50;99.90;;;;;;4917234;29;20116;-81
2022/03/14 09:21:48;;;;;;;11.35;7.63;;;9.50;99.90;;;;;;4916690;29;20043;-81
2022/03/14 09:24:37;;;;;;;10.52;7.88;;;9.60;99.90;;;;;;4916955;29;20481;-81
2022/03/14 09:27:25;;;;;;;10.70;8.63;;;9.60;99.90;;;;;;4903534;29;20051;-81
2022/03/14 09:30:11;;;;;;;11.05;8.23;;;9.60;99.90;;;;;;4890114;29;20078;-80
2022/03/14 09:32:55;;;;;;;11.10;7.97;;;9.70;99.90;;;;;;4901794;29;20115;-80
2022/03/14 09:35:40;;;;;;;11.02;8.90;;;9.70;99.90;;;;;;4902884;29;20099;-80
2022/03/14 09:38:24;;;;;;;11.48;8.88;;;9.70;99.90;;;;;;4903481;29;20168;-80
2022/03/14 09:41:10;;;;;;;11.90;8.95;;;9.60;99.90;;;;;;4917799;29;20102;-80
2022/03/14 09:43:58;;;;;;;14.10;10.65;;;9.60;99.90;;;;;;4902924;29;20043;-80
2022/03/14 09:46:48;;;;;;;14.73;11.00;;;9.60;99.90;;;;;;4902711;29;20055;-79
2022/03/14 09:49:35;;;;;;;16.08;12.65;;;9.60;99.90;;;;;;4902412;29;20103;-83
2022/03/14 09:52:20;;;;;;;19.75;14.10;;;9.50;99.90;;;;;;4917333;29;20047;-81
2022/03/14 09:55:10;;;;;;;23.30;15.18;;;9.40;99.90;;;;;;4917246;29;20096;-80
2022/03/14 09:57:55;;;;;;;22.42;15.07;;;9.30;99.90;;;;;;4888981;29;20119;-80
2022/03/14 10:00:40;;;;;;;21.75;15.70;;;9.30;99.90;;;;;;4877272;29;20056;-81
2022/03/14 10:03:24;;;;;;;24.75;15.30;;;9.40;99.90;;;;;;4899583;29;20070;-80
2022/03/14 10:06:08;;;;;;;;;;;9.20;99.90;;;;;;4895383;29;20052;-82
2022/03/14 10:08:53;;;;;;;22.55;14.90;;;9.20;99.90;;;;;;4867449;29;19930;-81
2022/03/14 10:11:37;;;;;;;21.05;13.73;;;9.20;99.90;;;;;;4869954;29;20088;-80
2022/03/14 10:14:22;;;;;;;15.90;10.10;;;9.10;99.90;;;;;;4877853;29;20079;-79
2022/03/14 10:17:06;;;;;;;18.83;9.18;;;9.00;99.90;;;;;;4878882;29;20041;-80
2022/03/14 10:19:54;;;;;;;;;;;9.00;99.90;;;;;;4878761;29;20040;-80
2022/03/14 10:22:40;;;;;;;19.48;9.95;;;9.00;99.90;;;;;;4890875;29;20387;-80
2022/03/14 10:25:24;;;;;;;19.50;9.85;;;9.00;99.90;;;;;;4897366;29;20108;-80
2022/03/14 10:28:09;;;;;;;18.25;9.73;;;9.00;99.90;;;;;;4883420;29;20458;-79
2022/03/14 10:30:53;;;;;;;20.52;11.20;;;9.00;99.90;;;;;;4882780;29;20507;-80
2022/03/14 10:33:39;;;;;;;18.88;11.45;;;9.00;99.90;;;;;;4897264;29;20047;-84
2022/03/14 10:36:57;;;;;;;21.83;12.85;;;9.00;99.90;;;;;;4882753;29;20064;-80
2022/03/14 10:39:41;;;;;;;19.88;11.82;;;9.00;99.90;;;;;;4882175;29;20035;-81
2022/03/14 10:42:26;;;;;;;23.98;13.80;;;9.00;99.90;;;;;;4896446;29;20043;-80
2022/03/14 10:45:12;;;;;;;26.85;14.27;;;9.10;99.90;;;;;;4895845;29;20115;-81
2022/03/14 10:47:57;;;;;;;22.35;12.88;;;9.20;99.90;;;;;;4903147;29;20040;-80
2022/03/14 10:50:42;;;;;;;26.85;13.95;;;9.30;99.90;;;;;;4914685;29;20338;-83
2022/03/14 10:53:26;;;;;;;25.40;14.85;;;9.30;99.90;;;;;;4888384;29;20043;-80
2022/03/14 10:56:11;;;;;;;;;;;9.40;99.90;;;;;;4895567;29;20536;-80
2022/03/14 10:58:58;;;;;;;23.05;12.60;;;9.40;99.90;;;;;;4903002;29;20006;-80
2022/03/14 11:01:59;;;;;;;23.00;12.93;;;9.50;99.90;;;;;;4900544;29;20075;-82
2022/03/14 11:04:54;;;;;;;21.23;12.38;;;9.50;99.90;;;;;;4899592;29;20087;-82
2022/03/14 11:07:40;;;;;;;21.33;11.80;;;9.60;99.90;;;;;;4915621;29;20098;-80
2022/03/14 11:10:38;;;;;;;18.60;10.50;;;9.70;99.90;;;;;;4901167;29;20099;-80
2022/03/14 11:13:23;;;;;;;22.35;11.48;;;9.80;99.90;;;;;;4901461;29;20043;-80
2022/03/14 11:16:34;;;;;;;19.65;10.50;;;9.80;99.90;;;;;;4900889;29;20082;-80
2022/03/14 11:19:18;;;;;;;19.42;10.50;;;9.90;99.90;;;;;;4915585;29;20055;-81
2022/03/14 11:22:03;;;;;;;17.60;8.20;;;9.90;99.90;;;;;;4882089;29;20108;-79
2022/03/14 11:24:52;;;;;;;20.30;8.18;;;10.00;99.90;;;;;;4900661;29;20063;-80
2022/03/14 11:27:37;;;;;;;23.58;8.60;;;9.90;99.90;;;;;;4901360;29;20488;-80
2022/03/14 11:30:21;;;;;;;20.15;9.55;;;10.00;99.90;;;;;;4901108;29;20099;-80
2022/03/14 11:33:06;;;;;;;13.23;7.68;;;10.00;99.90;;;;;;4914712;29;20110;-79
2022/03/14 11:35:51;;;;;;;17.13;8.30;;;9.90;99.90;;;;;;4911140;29;20558;-79
2022/03/14 11:38:35;;;;;;;16.77;9.20;;;10.00;99.90;;;;;;4891027;29;20043;-80
2022/03/14 11:41:21;;;;;;;18.58;9.88;;;10.10;99.90;;;;;;4911189;29;20078;-81
2022/03/14 11:44:06;;;;;;;17.67;10.40;;;9.90;99.90;;;;;;4912177;29;20059;-81
2022/03/14 11:46:53;;;;;;;19.65;10.18;;;9.90;99.90;;;;;;4889992;29;20417;-80
2022/03/14 11:49:38;;;;;;;23.40;10.98;;;9.90;99.90;;;;;;4897165;29;20084;-79
2022/03/14 11:52:39;;;;;;;21.90;10.77;;;9.90;99.90;;;;;;4870586;29;20047;-80
2022/03/14 11:55:27;;;;;;;21.35;10.98;;;9.90;99.90;;;;;;4915240;29;20103;-81
2022/03/14 11:58:34;;;;;;;18.80;10.15;;;9.90;99.90;;;;;;4919007;29;20500;-80
2022/03/14 12:01:21;;;;;;;20.83;9.95;;;9.90;99.90;;;;;;4905848;29;20095;-80
2022/03/14 12:04:09;;;;;;;18.55;10.65;;;9.90;99.90;;;;;;4896194;29;20115;-80
2022/03/14 12:06:55;;;;;;;22.55;10.88;;;9.90;99.90;;;;;;4885093;29;20095;-81
2022/03/14 12:09:45;;;;;;;22.77;11.18;;;9.90;99.90;;;;;;4899030;29;20468;-81
2022/03/14 12:12:30;;;;;;;19.15;11.13;;;10.00;99.90;;;;;;4894134;29;20501;-81
2022/03/14 12:15:14;;;;;;;21.23;11.73;;;10.00;99.90;;;;;;4918930;29;20103;-81
2022/03/14 12:17:59;;;;;;;20.55;12.88;;;10.00;99.90;;;;;;4919279;29;20070;-80
2022/03/14 12:20:43;;;;;;;27.85;12.45;;;10.10;99.90;;;;;;4925967;29;20043;-81
2022/03/14 12:23:29;;;;;;;27.67;13.88;;;10.10;99.90;;;;;;4904320;29;20043;-80
2022/03/14 12:26:25;;;;;;;26.08;15.55;;;10.10;99.90;;;;;;4903824;29;20453;-80
2022/03/14 12:29:37;;;;;;;24.40;15.52;;;10.20;99.90;;;;;;4917928;29;20091;-80
2022/03/14 12:32:52;;;;;;;30.65;17.52;;;10.20;99.90;;;;;;4918666;29;20079;-80
2022/03/14 12:35:37;;;;;;;27.20;17.42;;;10.30;99.90;;;;;;4904112;29;20110;-80
2022/03/14 12:38:22;;;;;;;32.00;19.40;;;10.40;99.90;;;;;;4904063;29;20043;-80
2022/03/14 12:41:22;;;;;;;27.95;18.02;;;10.50;99.90;;;;;;4917373;29;20067;-82
2022/03/14 12:44:29;;;;;;;30.83;19.98;;;10.50;99.90;;;;;;4915297;29;20046;-81
2022/03/14 12:47:14;;;;;;;32.20;19.15;;;10.50;99.90;;;;;;4919491;29;20082;-80
2022/03/14 12:49:58;;;;;;;27.52;20.23;;;10.50;99.90;;;;;;4899546;29;20043;-82
2022/03/14 12:52:59;;;;;;;27.35;19.40;;;10.60;99.90;;;;;;4916346;29;20114;-80
2022/03/14 12:55:48;;;;;;;28.63;21.25;;;10.70;99.90;;;;;;4902730;29;20059;-80
2022/03/14 12:58:33;;;;;;;37.40;20.02;;;10.80;99.90;;;;;;4901072;29;20143;-85
2022/03/14 13:01:18;;;;;;;27.98;19.10;;;10.70;99.90;;;;;;4916176;29;20082;-84
2022/03/14 13:04:12;;;;;;;27.88;18.92;;;10.80;99.90;;;;;;4921396;29;21488;-84
2022/03/14 13:06:59;;;;;;;25.48;17.42;;;10.90;99.90;;;;;;4914158;29;20127;-82
2022/03/14 13:09:51;;;;;;;27.52;14.27;;;11.00;99.90;;;;;;4917920;29;20055;-79
2022/03/14 13:12:35;;;;;;;23.48;13.57;;;11.00;99.90;;;;;;4914121;29;20411;-80
2022/03/14 13:15:20;;;;;;;24.77;14.30;;;11.10;99.90;;;;;;4900140;29;20059;-83
2022/03/14 13:18:19;;;;;;;22.50;14.70;;;11.10;99.90;;;;;;4899450;29;20189;-81
2022/03/14 13:21:25;;;;;;;28.48;14.45;;;11.10;99.90;;;;;;4901713;29;20103;-83
2022/03/14 13:24:09;;;;;;;24.70;12.23;;;11.20;99.90;;;;;;4902467;29;20038;-81
2022/03/14 13:26:57;;;;;;;20.92;11.80;;;11.20;99.90;;;;;;4917166;29;20512;-79
2022/03/14 13:29:44;;;;;;;21.52;10.73;;;11.30;99.90;;;;;;4902874;29;20043;-80
2022/03/14 13:32:32;;;;;;;20.45;9.52;;;11.40;99.90;;;;;;4921183;29;20488;-79
2022/03/14 13:35:16;;;;;;;20.90;10.35;;;11.50;99.90;;;;;;4931370;29;20047;-80
2022/03/14 13:38:00;;;;;;;19.27;11.32;;;11.50;99.90;;;;;;4907542;29;20078;-82
2022/03/14 13:40:45;;;;;;;20.60;10.75;;;11.60;99.90;;;;;;4921819;29;20071;-80
2022/03/14 13:43:30;;;;;;;17.63;9.90;;;11.70;99.90;;;;;;4898289;29;20040;-80
2022/03/14 13:46:31;;;;;;;20.05;10.43;;;11.80;99.90;;;;;;4897508;29;20504;-81
2022/03/14 13:49:20;;;;;;;15.00;9.43;;;12.00;99.90;;;;;;4897477;29;20039;-79
2022/03/14 13:52:13;;;;;;;22.20;10.05;;;12.10;99.90;;;;;;4883354;29;20516;-80
2022/03/14 13:54:57;;;;;;;19.25;10.00;;;12.20;99.90;;;;;;4898044;29;20042;-79
2022/03/14 13:57:41;;;;;;;19.23;9.40;;;12.40;99.90;;;;;;4871317;29;20044;-80
2022/03/14 14:00:27;;;;;;;18.77;10.52;;;12.40;99.90;;;;;;4915682;29;20063;-80
2022/03/14 14:03:26;;;;;;;16.98;8.98;;;12.50;99.90;;;;;;4916239;29;20099;-79
2022/03/14 14:06:17;;;;;;;18.90;8.32;;;12.50;99.90;;;;;;4929847;29;20095;-80
2022/03/14 14:09:21;;;;;;;19.45;9.32;;;12.50;99.90;;;;;;4921191;29;20050;-79
2022/03/14 14:12:16;;;;;;;19.77;8.70;;;12.40;99.90;;;;;;4934959;29;20369;-80
2022/03/14 14:15:06;;;;;;;17.58;7.95;;;12.40;99.90;;;;;;4933134;29;20050;-80
2022/03/14 14:17:52;;;;;;;15.40;8.55;;;12.40;99.90;;;;;;4906897;29;20124;-82
2022/03/14 14:20:36;;;;;;;14.90;7.32;;;12.40;99.90;;;;;;4900319;29;20046;-80
2022/03/14 14:23:22;;;;;;;18.77;8.60;;;12.30;99.90;;;;;;4892663;29;20035;-79
2022/03/14 14:26:06;;;;;;;18.77;7.78;;;12.30;99.90;;;;;;4915574;29;20055;-82
2022/03/14 14:28:50;;;;;;;15.32;7.13;;;12.20;99.90;;;;;;4930513;29;20448;-80
2022/03/14 14:31:34;;;;;;;17.88;7.78;;;12.20;99.90;;;;;;4891555;29;20250;-79
2022/03/14 14:34:18;;;;;;;15.02;7.30;;;12.10;99.90;;;;;;4915505;29;20040;-80